Calliham, Texas
Current Conditions -  °F | °C
As of 11:58 AM on Sunday 21 Dec 2014 (Local Time) from KNMT Reporting Station
Overcast Overcast  
Wind Chill: 59°   Ceiling: 1600
Heat Index: 59°   Visibility: NA
Dew Point: 50°   Wind: 3mph
Humidity: 72%   Direction: NA
Pressure: 30.04"   Gusts: NA
Location:  28.48°N, 98.35°W
Report Text: KNMT 211758Z AUTO VRB03KT OVC016 15/10 A3004 RMK AO2 SLP109 6//// T01500100 10150 20122 58018 PNO $
Loading
Personal Weather Stations






























Interactive Weather Map New forecast layout! Learn more

10-Day Weather Forecast

Advertisements
Track Severe Weather on mobile